sensor_id;sensor_type;location;lat;lon;timestamp;pressure;altitude;pressure_sealevel;temperature;humidity
5296;BME280;2670;42.720;23.336;2023-07-31T00:01:43;-18091.72;;;-145.34;72.02
5296;BME280;2670;42.720;23.336;2023-07-31T00:04:10;-18091.72;;;-145.34;71.73
5296;BME280;2670;42.720;23.336;2023-07-31T00:06:36;-18091.72;;;-145.34;71.70
5296;BME280;2670;42.720;23.336;2023-07-31T00:09:04;-18091.72;;;-145.34;70.99
5296;BME280;2670;42.720;23.336;2023-07-31T00:11:31;-18091.72;;;-145.34;71.66
5296;BME280;2670;42.720;23.336;2023-07-31T00:13:58;-18091.72;;;-145.34;71.15
5296;BME280;2670;42.720;23.336;2023-07-31T00:16:25;-18091.72;;;-145.34;72.60
5296;BME280;2670;42.720;23.336;2023-07-31T00:18:52;-18091.72;;;-145.34;72.31
5296;BME280;2670;42.720;23.336;2023-07-31T00:21:18;-18091.72;;;-145.34;72.91
5296;BME280;2670;42.720;23.336;2023-07-31T00:23:45;-18091.72;;;-145.34;72.51
5296;BME280;2670;42.720;23.336;2023-07-31T00:26:13;-18091.72;;;-145.34;71.82
5296;BME280;2670;42.720;23.336;2023-07-31T00:28:40;-18091.72;;;-145.34;73.13
5296;BME280;2670;42.720;23.336;2023-07-31T00:31:06;-18091.72;;;-145.34;73.66
5296;BME280;2670;42.720;23.336;2023-07-31T00:33:34;-18091.72;;;-145.34;73.60
5296;BME280;2670;42.720;23.336;2023-07-31T00:36:01;-18091.72;;;-145.34;74.27
5296;BME280;2670;42.720;23.336;2023-07-31T00:38:30;-18091.72;;;-145.34;75.00
5296;BME280;2670;42.720;23.336;2023-07-31T00:40:57;-18091.72;;;-145.34;74.63
5296;BME280;2670;42.720;23.336;2023-07-31T00:43:26;-18091.72;;;-145.34;75.04
5296;BME280;2670;42.720;23.336;2023-07-31T00:45:52;-18091.72;;;-145.34;77.03
5296;BME280;2670;42.720;23.336;2023-07-31T00:48:19;-18091.72;;;-145.34;77.33
5296;BME280;2670;42.720;23.336;2023-07-31T00:50:46;-18091.72;;;-145.34;77.24
5296;BME280;2670;42.720;23.336;2023-07-31T00:53:13;-18091.72;;;-145.34;76.70
5296;BME280;2670;42.720;23.336;2023-07-31T00:55:40;-18091.72;;;-145.34;77.67
5296;BME280;2670;42.720;23.336;2023-07-31T00:58:07;-18091.72;;;-145.34;77.71
5296;BME280;2670;42.720;23.336;2023-07-31T01:00:35;-18091.72;;;-145.34;76.98
5296;BME280;2670;42.720;23.336;2023-07-31T01:03:04;-18091.72;;;-145.34;77.63
5296;BME280;2670;42.720;23.336;2023-07-31T01:05:49;-18091.72;;;-145.34;77.65
5296;BME280;2670;42.720;23.336;2023-07-31T01:08:26;-18091.72;;;-145.34;77.62
5296;BME280;2670;42.720;23.336;2023-07-31T01:11:02;-18091.72;;;-145.34;77.48
5296;BME280;2670;42.720;23.336;2023-07-31T01:13:31;-18091.72;;;-145.34;77.84
5296;BME280;2670;42.720;23.336;2023-07-31T01:15:59;-18091.72;;;-145.34;78.02
5296;BME280;2670;42.720;23.336;2023-07-31T01:18:26;-18091.72;;;-145.34;78.84
5296;BME280;2670;42.720;23.336;2023-07-31T01:20:57;-18091.72;;;-145.34;78.20
5296;BME280;2670;42.720;23.336;2023-07-31T01:23:35;-18091.72;;;-145.34;79.08
5296;BME280;2670;42.720;23.336;2023-07-31T01:26:10;-18091.72;;;-145.34;80.14
5296;BME280;2670;42.720;23.336;2023-07-31T01:28:46;-18091.72;;;-145.34;80.52
5296;BME280;2670;42.720;23.336;2023-07-31T01:31:20;-18091.72;;;-145.34;80.97
5296;BME280;2670;42.720;23.336;2023-07-31T01:33:48;-18091.72;;;-145.34;80.34
5296;BME280;2670;42.720;23.336;2023-07-31T01:36:15;-18091.72;;;-145.34;80.22
5296;BME280;2670;42.720;23.336;2023-07-31T01:38:42;-18091.72;;;-145.34;81.21
5296;BME280;2670;42.720;23.336;2023-07-31T01:41:10;-18091.72;;;-145.34;81.56
5296;BME280;2670;42.720;23.336;2023-07-31T01:43:37;-18091.72;;;-145.34;80.72
5296;BME280;2670;42.720;23.336;2023-07-31T01:46:04;-18091.72;;;-145.34;81.80
5296;BME280;2670;42.720;23.336;2023-07-31T01:48:30;-18091.72;;;-145.34;82.31
5296;BME280;2670;42.720;23.336;2023-07-31T01:51:01;-18091.72;;;-145.34;82.53
5296;BME280;2670;42.720;23.336;2023-07-31T01:53:28;-18091.72;;;-145.34;83.36
5296;BME280;2670;42.720;23.336;2023-07-31T01:55:55;-18091.72;;;-145.34;84.63
5296;BME280;2670;42.720;23.336;2023-07-31T01:58:23;-18091.72;;;-145.34;84.56
5296;BME280;2670;42.720;23.336;2023-07-31T02:00:50;-18091.72;;;-145.34;84.00
5296;BME280;2670;42.720;23.336;2023-07-31T02:03:16;-18091.72;;;-145.34;83.86
5296;BME280;2670;42.720;23.336;2023-07-31T02:05:47;-18091.72;;;-145.34;83.96
5296;BME280;2670;42.720;23.336;2023-07-31T02:08:14;-18091.72;;;-145.34;84.90
5296;BME280;2670;42.720;23.336;2023-07-31T02:10:41;-18091.72;;;-145.34;84.68
5296;BME280;2670;42.720;23.336;2023-07-31T02:13:08;-18091.72;;;-145.34;85.26
5296;BME280;2670;42.720;23.336;2023-07-31T02:15:36;-18091.72;;;-145.34;85.26
5296;BME280;2670;42.720;23.336;2023-07-31T02:18:03;-18091.72;;;-145.34;84.92
5296;BME280;2670;42.720;23.336;2023-07-31T02:20:29;-18091.72;;;-145.34;84.81
5296;BME280;2670;42.720;23.336;2023-07-31T02:22:56;-18091.72;;;-145.34;85.27
5296;BME280;2670;42.720;23.336;2023-07-31T02:25:23;-18091.72;;;-145.34;86.16
5296;BME280;2670;42.720;23.336;2023-07-31T02:27:49;-18091.72;;;-145.34;86.54
5296;BME280;2670;42.720;23.336;2023-07-31T02:30:16;-18091.72;;;-145.34;86.98
5296;BME280;2670;42.720;23.336;2023-07-31T02:32:44;-18091.72;;;-145.34;86.94
5296;BME280;2670;42.720;23.336;2023-07-31T02:35:11;-18091.72;;;-145.34;86.76
5296;BME280;2670;42.720;23.336;2023-07-31T02:37:40;-18091.72;;;-145.34;86.53
5296;BME280;2670;42.720;23.336;2023-07-31T02:40:07;-18091.72;;;-145.34;86.65
5296;BME280;2670;42.720;23.336;2023-07-31T02:42:34;-18091.72;;;-145.34;86.45
5296;BME280;2670;42.720;23.336;2023-07-31T02:45:01;-18091.72;;;-145.34;86.77
5296;BME280;2670;42.720;23.336;2023-07-31T02:47:28;-18091.72;;;-145.34;87.59
5296;BME280;2670;42.720;23.336;2023-07-31T02:49:56;-18091.72;;;-145.34;88.27
5296;BME280;2670;42.720;23.336;2023-07-31T02:52:22;-18091.72;;;-145.34;89.05
5296;BME280;2670;42.720;23.336;2023-07-31T02:54:49;-18091.72;;;-145.34;90.04
5296;BME280;2670;42.720;23.336;2023-07-31T02:57:16;-18091.72;;;-145.34;89.92
5296;BME280;2670;42.720;23.336;2023-07-31T02:59:43;-18091.72;;;-145.34;89.38
5296;BME280;2670;42.720;23.336;2023-07-31T03:02:09;-18091.72;;;-145.34;89.15
5296;BME280;2670;42.720;23.336;2023-07-31T03:04:36;-18091.72;;;-145.34;89.23
5296;BME280;2670;42.720;23.336;2023-07-31T03:07:05;-18091.72;;;-145.34;89.49
5296;BME280;2670;42.720;23.336;2023-07-31T03:09:32;-18091.72;;;-145.34;90.69
5296;BME280;2670;42.720;23.336;2023-07-31T03:11:58;-18091.72;;;-145.34;91.24
5296;BME280;2670;42.720;23.336;2023-07-31T03:14:25;-18091.72;;;-145.34;91.65
5296;BME280;2670;42.720;23.336;2023-07-31T03:16:53;-18091.72;;;-145.34;91.44
5296;BME280;2670;42.720;23.336;2023-07-31T03:19:20;-18091.72;;;-145.34;91.54
5296;BME280;2670;42.720;23.336;2023-07-31T03:21:46;-18091.72;;;-145.34;91.02
5296;BME280;2670;42.720;23.336;2023-07-31T03:24:14;-18091.72;;;-145.34;91.70
5296;BME280;2670;42.720;23.336;2023-07-31T03:26:41;-18091.72;;;-145.34;91.47
5296;BME280;2670;42.720;23.336;2023-07-31T03:29:08;-18091.72;;;-145.34;91.28
5296;BME280;2670;42.720;23.336;2023-07-31T03:31:35;-18091.72;;;-145.34;91.72
5296;BME280;2670;42.720;23.336;2023-07-31T03:34:00;-18091.72;;;-145.34;91.09
5296;BME280;2670;42.720;23.336;2023-07-31T03:36:27;-18091.72;;;-145.34;90.23
5296;BME280;2670;42.720;23.336;2023-07-31T03:38:54;-18091.72;;;-145.34;89.49
5296;BME280;2670;42.720;23.336;2023-07-31T03:41:22;-18091.72;;;-145.34;90.28
5296;BME280;2670;42.720;23.336;2023-07-31T03:43:50;-18091.72;;;-145.34;88.79
5296;BME280;2670;42.720;23.336;2023-07-31T03:46:17;-18091.72;;;-145.34;89.31
5296;BME280;2670;42.720;23.336;2023-07-31T03:48:44;-18091.72;;;-145.34;88.98
5296;BME280;2670;42.720;23.336;2023-07-31T03:51:11;-18091.72;;;-145.34;88.69
5296;BME280;2670;42.720;23.336;2023-07-31T03:53:37;-18091.72;;;-145.34;88.50
5296;BME280;2670;42.720;23.336;2023-07-31T03:56:04;-18091.72;;;-145.34;87.98
5296;BME280;2670;42.720;23.336;2023-07-31T03:58:32;-18091.72;;;-145.34;87.51
5296;BME280;2670;42.720;23.336;2023-07-31T04:01:00;-18091.72;;;-145.34;87.35
5296;BME280;2670;42.720;23.336;2023-07-31T04:03:27;-18091.72;;;-145.34;86.59
5296;BME280;2670;42.720;23.336;2023-07-31T04:05:54;-18091.72;;;-145.34;86.92
5296;BME280;2670;42.720;23.336;2023-07-31T04:08:21;-18091.72;;;-145.34;87.38
5296;BME280;2670;42.720;23.336;2023-07-31T04:10:48;-18091.72;;;-145.34;87.57
5296;BME280;2670;42.720;23.336;2023-07-31T04:13:15;-18091.72;;;-145.34;87.48
5296;BME280;2670;42.720;23.336;2023-07-31T04:15:48;-18091.72;;;-145.34;86.66
5296;BME280;2670;42.720;23.336;2023-07-31T04:18:15;-18091.72;;;-145.34;86.84
5296;BME280;2670;42.720;23.336;2023-07-31T04:20:42;-18091.72;;;-145.34;86.90
5296;BME280;2670;42.720;23.336;2023-07-31T04:23:08;-18091.72;;;-145.34;87.65
5296;BME280;2670;42.720;23.336;2023-07-31T04:25:35;-18091.72;;;-145.34;87.91
5296;BME280;2670;42.720;23.336;2023-07-31T04:28:02;-18091.72;;;-145.34;87.23
5296;BME280;2670;42.720;23.336;2023-07-31T04:30:28;-18091.72;;;-145.34;86.32
5296;BME280;2670;42.720;23.336;2023-07-31T04:32:56;-18091.72;;;-145.34;86.23
5296;BME280;2670;42.720;23.336;2023-07-31T04:35:23;-18091.72;;;-145.34;86.25
5296;BME280;2670;42.720;23.336;2023-07-31T04:37:50;-18091.72;;;-145.34;85.28
5296;BME280;2670;42.720;23.336;2023-07-31T04:40:16;-18091.72;;;-145.34;85.27
5296;BME280;2670;42.720;23.336;2023-07-31T04:42:45;-18091.72;;;-145.34;85.70
5296;BME280;2670;42.720;23.336;2023-07-31T04:45:12;-18091.72;;;-145.34;85.84
5296;BME280;2670;42.720;23.336;2023-07-31T04:47:39;-18091.72;;;-145.34;86.31
5296;BME280;2670;42.720;23.336;2023-07-31T04:50:08;-18091.72;;;-145.34;85.97
5296;BME280;2670;42.720;23.336;2023-07-31T04:52:35;-18091.72;;;-145.34;84.57
5296;BME280;2670;42.720;23.336;2023-07-31T04:55:01;-18091.72;;;-145.34;85.08
5296;BME280;2670;42.720;23.336;2023-07-31T04:57:28;-18091.72;;;-145.34;84.27
5296;BME280;2670;42.720;23.336;2023-07-31T04:59:55;-18091.72;;;-145.34;85.40
5296;BME280;2670;42.720;23.336;2023-07-31T05:02:22;-18091.72;;;-145.34;85.64
5296;BME280;2670;42.720;23.336;2023-07-31T05:04:49;-18091.72;;;-145.34;85.63
5296;BME280;2670;42.720;23.336;2023-07-31T05:07:17;-18091.72;;;-145.34;85.11
5296;BME280;2670;42.720;23.336;2023-07-31T05:09:44;-18091.72;;;-145.34;85.73
5296;BME280;2670;42.720;23.336;2023-07-31T05:12:11;-18091.72;;;-145.34;85.62
5296;BME280;2670;42.720;23.336;2023-07-31T05:14:38;-18091.72;;;-145.34;85.45
5296;BME280;2670;42.720;23.336;2023-07-31T05:17:05;-18091.72;;;-145.34;84.01
5296;BME280;2670;42.720;23.336;2023-07-31T05:19:32;-18091.72;;;-145.34;84.60
5296;BME280;2670;42.720;23.336;2023-07-31T05:21:58;-18091.72;;;-145.34;84.18
5296;BME280;2670;42.720;23.336;2023-07-31T05:24:26;-18091.72;;;-145.34;82.67
5296;BME280;2670;42.720;23.336;2023-07-31T05:26:53;-18091.72;;;-145.34;81.12
5296;BME280;2670;42.720;23.336;2023-07-31T05:29:20;-18091.72;;;-145.34;81.10
5296;BME280;2670;42.720;23.336;2023-07-31T05:31:47;-18091.72;;;-145.34;81.26
5296;BME280;2670;42.720;23.336;2023-07-31T05:34:13;-18091.72;;;-145.34;81.28
5296;BME280;2670;42.720;23.336;2023-07-31T05:36:40;-18091.72;;;-145.34;81.02
5296;BME280;2670;42.720;23.336;2023-07-31T05:39:07;-18091.72;;;-145.34;80.66
5296;BME280;2670;42.720;23.336;2023-07-31T05:41:35;-18091.72;;;-145.34;80.43
5296;BME280;2670;42.720;23.336;2023-07-31T05:44:02;-18091.72;;;-145.34;78.71
5296;BME280;2670;42.720;23.336;2023-07-31T05:46:29;-18091.72;;;-145.34;78.99
5296;BME280;2670;42.720;23.336;2023-07-31T05:48:56;-18091.72;;;-145.34;78.85
5296;BME280;2670;42.720;23.336;2023-07-31T05:51:25;-18091.72;;;-145.34;78.33
5296;BME280;2670;42.720;23.336;2023-07-31T05:53:51;-18091.72;;;-145.34;77.96
5296;BME280;2670;42.720;23.336;2023-07-31T05:56:18;-18091.72;;;-145.34;77.41
5296;BME280;2670;42.720;23.336;2023-07-31T05:58:46;-18091.72;;;-145.34;77.34
5296;BME280;2670;42.720;23.336;2023-07-31T06:01:15;-18091.72;;;-145.34;76.83
5296;BME280;2670;42.720;23.336;2023-07-31T06:03:41;-18091.72;;;-145.34;75.93
5296;BME280;2670;42.720;23.336;2023-07-31T06:06:08;-18091.72;;;-145.34;76.36
5296;BME280;2670;42.720;23.336;2023-07-31T06:08:35;-18091.72;;;-145.34;75.31
5296;BME280;2670;42.720;23.336;2023-07-31T06:11:02;-18091.72;;;-145.34;76.17
5296;BME280;2670;42.720;23.336;2023-07-31T06:13:29;-18091.72;;;-145.34;74.61
5296;BME280;2670;42.720;23.336;2023-07-31T06:15:57;-18091.72;;;-145.34;74.22
5296;BME280;2670;42.720;23.336;2023-07-31T06:18:24;-18091.72;;;-145.34;73.98
5296;BME280;2670;42.720;23.336;2023-07-31T06:20:51;-18091.72;;;-145.34;72.77
5296;BME280;2670;42.720;23.336;2023-07-31T06:23:19;-18091.72;;;-145.34;72.11
5296;BME280;2670;42.720;23.336;2023-07-31T06:25:46;-18091.72;;;-145.34;72.24
5296;BME280;2670;42.720;23.336;2023-07-31T06:28:12;-18091.72;;;-145.34;72.18
5296;BME280;2670;42.720;23.336;2023-07-31T06:30:39;-18091.72;;;-145.34;71.99
5296;BME280;2670;42.720;23.336;2023-07-31T06:33:07;-18091.72;;;-145.34;69.98
5296;BME280;2670;42.720;23.336;2023-07-31T06:35:34;-18091.72;;;-145.34;70.53
5296;BME280;2670;42.720;23.336;2023-07-31T06:38:01;-18091.72;;;-145.34;69.96
5296;BME280;2670;42.720;23.336;2023-07-31T06:40:28;-18091.72;;;-145.34;70.42
5296;BME280;2670;42.720;23.336;2023-07-31T06:42:54;-18091.72;;;-145.34;69.44
5296;BME280;2670;42.720;23.336;2023-07-31T06:45:21;-18091.72;;;-145.34;69.15
5296;BME280;2670;42.720;23.336;2023-07-31T06:47:48;-18091.72;;;-145.34;68.13
5296;BME280;2670;42.720;23.336;2023-07-31T06:50:16;-18091.72;;;-145.34;68.02
5296;BME280;2670;42.720;23.336;2023-07-31T06:52:43;-18091.72;;;-145.34;68.24
5296;BME280;2670;42.720;23.336;2023-07-31T06:55:17;-18091.72;;;-145.34;67.57
5296;BME280;2670;42.720;23.336;2023-07-31T06:57:44;-18091.72;;;-145.34;67.85
5296;BME280;2670;42.720;23.336;2023-07-31T07:00:12;-18091.72;;;-145.34;67.77
5296;BME280;2670;42.720;23.336;2023-07-31T07:02:39;-18091.72;;;-145.34;67.01
5296;BME280;2670;42.720;23.336;2023-07-31T07:05:06;-18091.72;;;-145.34;67.52
5296;BME280;2670;42.720;23.336;2023-07-31T07:07:35;-18091.72;;;-145.34;67.33
5296;BME280;2670;42.720;23.336;2023-07-31T07:10:03;-18091.72;;;-145.34;67.11
5296;BME280;2670;42.720;23.336;2023-07-31T07:12:31;-18091.72;;;-145.34;67.52
5296;BME280;2670;42.720;23.336;2023-07-31T07:14:58;-18091.72;;;-145.34;66.40
5296;BME280;2670;42.720;23.336;2023-07-31T07:17:24;-18091.72;;;-145.34;65.64
5296;BME280;2670;42.720;23.336;2023-07-31T07:19:51;-18091.72;;;-145.34;66.36
5296;BME280;2670;42.720;23.336;2023-07-31T07:22:18;-18091.72;;;-145.34;66.08
5296;BME280;2670;42.720;23.336;2023-07-31T07:24:46;-18091.72;;;-145.34;65.41
5296;BME280;2670;42.720;23.336;2023-07-31T07:27:13;-18091.72;;;-145.34;64.12
5296;BME280;2670;42.720;23.336;2023-07-31T07:29:40;-18091.72;;;-145.34;64.11
5296;BME280;2670;42.720;23.336;2023-07-31T07:32:07;-18091.72;;;-145.34;63.31
5296;BME280;2670;42.720;23.336;2023-07-31T07:34:34;-18091.72;;;-145.34;63.13
5296;BME280;2670;42.720;23.336;2023-07-31T07:37:01;-18091.72;;;-145.34;63.87
5296;BME280;2670;42.720;23.336;2023-07-31T07:39:28;-18091.72;;;-145.34;64.19
5296;BME280;2670;42.720;23.336;2023-07-31T07:41:56;-18091.72;;;-145.34;64.34
5296;BME280;2670;42.720;23.336;2023-07-31T07:44:22;-18091.72;;;-145.34;63.50
5296;BME280;2670;42.720;23.336;2023-07-31T07:46:49;-18091.72;;;-145.34;63.64
5296;BME280;2670;42.720;23.336;2023-07-31T07:49:16;-18091.72;;;-145.34;62.44
5296;BME280;2670;42.720;23.336;2023-07-31T07:51:42;-18091.72;;;-145.34;61.66
5296;BME280;2670;42.720;23.336;2023-07-31T07:54:09;-18091.72;;;-145.34;60.99
5296;BME280;2670;42.720;23.336;2023-07-31T07:56:36;-18091.72;;;-145.34;61.83
5296;BME280;2670;42.720;23.336;2023-07-31T07:59:04;-18091.72;;;-145.34;61.64
5296;BME280;2670;42.720;23.336;2023-07-31T08:01:31;-18091.72;;;-145.34;60.94
5296;BME280;2670;42.720;23.336;2023-07-31T08:03:58;-18091.72;;;-145.34;59.91
5296;BME280;2670;42.720;23.336;2023-07-31T08:06:24;-18091.72;;;-145.34;60.20
5296;BME280;2670;42.720;23.336;2023-07-31T08:08:51;-18091.72;;;-145.34;60.22
5296;BME280;2670;42.720;23.336;2023-07-31T08:11:18;-18091.72;;;-145.34;60.10
5296;BME280;2670;42.720;23.336;2023-07-31T08:13:44;-18091.72;;;-145.34;59.16
5296;BME280;2670;42.720;23.336;2023-07-31T08:16:12;-18091.72;;;-145.34;59.11
5296;BME280;2670;42.720;23.336;2023-07-31T08:18:39;-18091.72;;;-145.34;58.89
5296;BME280;2670;42.720;23.336;2023-07-31T08:21:07;-18091.72;;;-145.34;59.06
5296;BME280;2670;42.720;23.336;2023-07-31T08:23:34;-18091.72;;;-145.34;58.82
5296;BME280;2670;42.720;23.336;2023-07-31T08:26:01;-18091.72;;;-145.34;58.80
5296;BME280;2670;42.720;23.336;2023-07-31T08:28:28;-18091.72;;;-145.34;58.09
5296;BME280;2670;42.720;23.336;2023-07-31T08:30:54;-18091.72;;;-145.34;57.94
5296;BME280;2670;42.720;23.336;2023-07-31T08:33:22;-18091.72;;;-145.34;57.37
5296;BME280;2670;42.720;23.336;2023-07-31T08:35:49;-18091.72;;;-145.34;57.92
5296;BME280;2670;42.720;23.336;2023-07-31T08:38:16;-18091.72;;;-145.34;56.50
5296;BME280;2670;42.720;23.336;2023-07-31T08:40:42;-18091.72;;;-145.34;55.83
5296;BME280;2670;42.720;23.336;2023-07-31T08:43:09;-18091.72;;;-145.34;56.26
5296;BME280;2670;42.720;23.336;2023-07-31T08:45:36;-18091.72;;;-145.34;55.29
5296;BME280;2670;42.720;23.336;2023-07-31T08:48:06;-18091.72;;;-145.34;55.39
5296;BME280;2670;42.720;23.336;2023-07-31T08:50:35;-18091.72;;;-145.34;55.80
5296;BME280;2670;42.720;23.336;2023-07-31T08:53:02;-18091.72;;;-145.34;55.56
5296;BME280;2670;42.720;23.336;2023-07-31T08:55:29;-18091.72;;;-145.34;54.90
5296;BME280;2670;42.720;23.336;2023-07-31T08:57:58;-18091.72;;;-145.34;54.25
5296;BME280;2670;42.720;23.336;2023-07-31T09:00:25;-18091.72;;;-145.34;55.17
5296;BME280;2670;42.720;23.336;2023-07-31T09:02:56;-18091.72;;;-145.34;54.72
5296;BME280;2670;42.720;23.336;2023-07-31T09:05:26;-18091.72;;;-145.34;54.45
5296;BME280;2670;42.720;23.336;2023-07-31T09:07:55;-18091.72;;;-145.34;54.62
5296;BME280;2670;42.720;23.336;2023-07-31T09:10:23;-18091.72;;;-145.34;53.47
5296;BME280;2670;42.720;23.336;2023-07-31T09:12:51;-18091.72;;;-145.34;53.31
5296;BME280;2670;42.720;23.336;2023-07-31T09:15:19;-18091.72;;;-145.34;53.45
5296;BME280;2670;42.720;23.336;2023-07-31T09:17:46;-18091.72;;;-145.34;53.47
5296;BME280;2670;42.720;23.336;2023-07-31T09:20:14;-18091.72;;;-145.34;53.45
5296;BME280;2670;42.720;23.336;2023-07-31T09:22:42;-18091.72;;;-145.34;53.33
5296;BME280;2670;42.720;23.336;2023-07-31T09:25:20;-18091.72;;;-145.34;53.84
5296;BME280;2670;42.720;23.336;2023-07-31T09:27:49;-18091.72;;;-145.34;52.92
5296;BME280;2670;42.720;23.336;2023-07-31T09:30:16;-18091.72;;;-145.34;52.88
5296;BME280;2670;42.720;23.336;2023-07-31T09:32:44;-18091.72;;;-145.34;52.85
5296;BME280;2670;42.720;23.336;2023-07-31T09:35:19;-18091.72;;;-145.34;52.38
5296;BME280;2670;42.720;23.336;2023-07-31T09:37:51;-18091.72;;;-145.34;53.70
5296;BME280;2670;42.720;23.336;2023-07-31T09:40:30;-18091.72;;;-145.34;53.88
5296;BME280;2670;42.720;23.336;2023-07-31T09:42:58;-18091.72;;;-145.34;53.43
5296;BME280;2670;42.720;23.336;2023-07-31T09:45:25;-18091.72;;;-145.34;53.41
5296;BME280;2670;42.720;23.336;2023-07-31T09:47:53;-18091.72;;;-145.34;52.63
5296;BME280;2670;42.720;23.336;2023-07-31T09:50:21;-18091.72;;;-145.34;51.52
5296;BME280;2670;42.720;23.336;2023-07-31T09:52:48;-18091.72;;;-145.34;51.93
5296;BME280;2670;42.720;23.336;2023-07-31T09:55:15;-18091.72;;;-145.34;52.76
5296;BME280;2670;42.720;23.336;2023-07-31T09:57:44;-18091.72;;;-145.34;52.16
5296;BME280;2670;42.720;23.336;2023-07-31T10:00:13;-18091.72;;;-145.34;52.50
5296;BME280;2670;42.720;23.336;2023-07-31T10:02:40;-18091.72;;;-145.34;52.33
5296;BME280;2670;42.720;23.336;2023-07-31T10:05:08;-18091.72;;;-145.34;51.98
5296;BME280;2670;42.720;23.336;2023-07-31T10:07:37;-18091.72;;;-145.34;51.77
5296;BME280;2670;42.720;23.336;2023-07-31T10:10:07;-18091.72;;;-145.34;50.73
5296;BME280;2670;42.720;23.336;2023-07-31T10:12:34;-18091.72;;;-145.34;50.94
5296;BME280;2670;42.720;23.336;2023-07-31T10:15:04;-18091.72;;;-145.34;49.61
5296;BME280;2670;42.720;23.336;2023-07-31T10:17:32;-18091.72;;;-145.34;49.98
5296;BME280;2670;42.720;23.336;2023-07-31T10:20:01;-18091.72;;;-145.34;49.63
5296;BME280;2670;42.720;23.336;2023-07-31T10:22:30;-18091.72;;;-145.34;49.83
5296;BME280;2670;42.720;23.336;2023-07-31T10:24:59;-18091.72;;;-145.34;49.86
5296;BME280;2670;42.720;23.336;2023-07-31T10:27:26;-18091.72;;;-145.34;48.81
5296;BME280;2670;42.720;23.336;2023-07-31T10:29:54;-18091.72;;;-145.34;47.88
5296;BME280;2670;42.720;23.336;2023-07-31T10:32:23;-18091.72;;;-145.34;48.18
5296;BME280;2670;42.720;23.336;2023-07-31T10:34:51;-18091.72;;;-145.34;48.26
5296;BME280;2670;42.720;23.336;2023-07-31T10:37:27;-18091.72;;;-145.34;48.38
5296;BME280;2670;42.720;23.336;2023-07-31T10:39:58;-18091.72;;;-145.34;47.49
5296;BME280;2670;42.720;23.336;2023-07-31T10:42:29;-18091.72;;;-145.34;47.41
5296;BME280;2670;42.720;23.336;2023-07-31T10:44:58;-18091.72;;;-145.34;47.24
5296;BME280;2670;42.720;23.336;2023-07-31T10:47:26;-18091.72;;;-145.34;48.06
5296;BME280;2670;42.720;23.336;2023-07-31T10:49:53;-18091.72;;;-145.34;47.57
5296;BME280;2670;42.720;23.336;2023-07-31T10:52:37;-18091.72;;;-145.34;46.62
5296;BME280;2670;42.720;23.336;2023-07-31T10:55:24;-18091.72;;;-145.34;46.32
5296;BME280;2670;42.720;23.336;2023-07-31T10:57:51;-18091.72;;;-145.34;46.25
5296;BME280;2670;42.720;23.336;2023-07-31T11:00:19;-18091.72;;;-145.34;46.09
5296;BME280;2670;42.720;23.336;2023-07-31T11:03:01;-18091.72;;;-145.34;45.95
5296;BME280;2670;42.720;23.336;2023-07-31T11:05:50;-18091.72;;;-145.34;45.22
5296;BME280;2670;42.720;23.336;2023-07-31T11:08:20;-18091.72;;;-145.34;45.56
5296;BME280;2670;42.720;23.336;2023-07-31T11:10:49;-18091.72;;;-145.34;44.45
5296;BME280;2670;42.720;23.336;2023-07-31T11:13:16;-18091.72;;;-145.34;45.09
5296;BME280;2670;42.720;23.336;2023-07-31T11:15:45;-18091.72;;;-145.34;44.57
5296;BME280;2670;42.720;23.336;2023-07-31T11:18:13;-18091.72;;;-145.34;44.84
5296;BME280;2670;42.720;23.336;2023-07-31T11:20:40;-18091.72;;;-145.34;44.84
5296;BME280;2670;42.720;23.336;2023-07-31T11:23:09;-18091.72;;;-145.34;44.86
5296;BME280;2670;42.720;23.336;2023-07-31T11:25:36;-18091.72;;;-145.34;43.47
5296;BME280;2670;42.720;23.336;2023-07-31T11:28:04;-18091.72;;;-145.34;44.07
5296;BME280;2670;42.720;23.336;2023-07-31T11:30:31;-18091.72;;;-145.34;43.76
5296;BME280;2670;42.720;23.336;2023-07-31T11:33:00;-18091.72;;;-145.34;44.25
5296;BME280;2670;42.720;23.336;2023-07-31T11:35:30;-18091.72;;;-145.34;43.82
5296;BME280;2670;42.720;23.336;2023-07-31T11:37:59;-18091.72;;;-145.34;44.12
5296;BME280;2670;42.720;23.336;2023-07-31T11:40:26;-18091.72;;;-145.34;45.00
5296;BME280;2670;42.720;23.336;2023-07-31T11:42:55;-18091.72;;;-145.34;44.52
5296;BME280;2670;42.720;23.336;2023-07-31T11:45:25;-18091.72;;;-145.34;44.50
5296;BME280;2670;42.720;23.336;2023-07-31T11:47:52;-18091.72;;;-145.34;44.31
5296;BME280;2670;42.720;23.336;2023-07-31T11:50:20;-18091.72;;;-145.34;45.33
5296;BME280;2670;42.720;23.336;2023-07-31T11:52:49;-18091.72;;;-145.34;44.70
5296;BME280;2670;42.720;23.336;2023-07-31T11:55:18;-18091.72;;;-145.34;44.74
5296;BME280;2670;42.720;23.336;2023-07-31T11:57:45;-18091.72;;;-145.34;44.30
5296;BME280;2670;42.720;23.336;2023-07-31T12:00:14;-18091.72;;;-145.34;44.93
5296;BME280;2670;42.720;23.336;2023-07-31T12:02:42;-18091.72;;;-145.34;44.05
5296;BME280;2670;42.720;23.336;2023-07-31T12:05:10;-18091.72;;;-145.34;44.63
5296;BME280;2670;42.720;23.336;2023-07-31T12:07:49;-18091.72;;;-145.34;44.35
5296;BME280;2670;42.720;23.336;2023-07-31T12:10:26;-18091.72;;;-145.34;45.11
5296;BME280;2670;42.720;23.336;2023-07-31T12:13:01;-18091.72;;;-145.34;44.67
5296;BME280;2670;42.720;23.336;2023-07-31T12:15:35;-18091.72;;;-145.34;44.98
5296;BME280;2670;42.720;23.336;2023-07-31T12:18:07;-18091.72;;;-145.34;44.57
5296;BME280;2670;42.720;23.336;2023-07-31T12:20:34;-18091.72;;;-145.34;44.81
5296;BME280;2670;42.720;23.336;2023-07-31T12:23:02;-18091.72;;;-145.34;45.26
5296;BME280;2670;42.720;23.336;2023-07-31T12:25:32;-18091.72;;;-145.34;44.88
5296;BME280;2670;42.720;23.336;2023-07-31T12:28:06;-18091.72;;;-145.34;45.02
5296;BME280;2670;42.720;23.336;2023-07-31T12:30:37;-18091.72;;;-145.34;44.61
5296;BME280;2670;42.720;23.336;2023-07-31T12:33:06;-18091.72;;;-145.34;45.29
5296;BME280;2670;42.720;23.336;2023-07-31T12:35:42;-18091.72;;;-145.34;44.33
5296;BME280;2670;42.720;23.336;2023-07-31T12:38:11;-18091.72;;;-145.34;44.69
5296;BME280;2670;42.720;23.336;2023-07-31T12:40:39;-18091.72;;;-145.34;44.72
5296;BME280;2670;42.720;23.336;2023-07-31T12:43:06;-18091.72;;;-145.34;44.78
5296;BME280;2670;42.720;23.336;2023-07-31T12:45:34;-18091.72;;;-145.34;44.81